sensor_id;sensor_type;location;lat;lon;timestamp;P1;durP1;ratioP1;P2;durP2;ratioP2
34278;SDS011;20538;51.528;9.942;2022-09-29T00:00:22;18.25;;;10.85;;
34278;SDS011;20538;51.528;9.942;2022-09-29T00:02:51;18.67;;;10.43;;
34278;SDS011;20538;51.528;9.942;2022-09-29T00:05:18;21.27;;;10.30;;
34278;SDS011;20538;51.528;9.942;2022-09-29T00:07:47;21.52;;;10.60;;
34278;SDS011;20538;51.528;9.942;2022-09-29T00:10:12;18.95;;;10.85;;
34278;SDS011;20538;51.528;9.942;2022-09-29T00:12:38;19.95;;;10.00;;
34278;SDS011;20538;51.528;9.942;2022-09-29T00:15:04;17.17;;;10.93;;
34278;SDS011;20538;51.528;9.942;2022-09-29T00:17:30;17.92;;;10.30;;
34278;SDS011;20538;51.528;9.942;2022-09-29T00:19:56;19.98;;;10.63;;
34278;SDS011;20538;51.528;9.942;2022-09-29T00:22:22;19.08;;;11.05;;
34278;SDS011;20538;51.528;9.942;2022-09-29T00:24:48;19.60;;;10.70;;
34278;SDS011;20538;51.528;9.942;2022-09-29T00:27:14;20.48;;;10.75;;
34278;SDS011;20538;51.528;9.942;2022-09-29T00:29:40;18.00;;;10.52;;
34278;SDS011;20538;51.528;9.942;2022-09-29T00:32:06;19.52;;;10.15;;
34278;SDS011;20538;51.528;9.942;2022-09-29T00:34:31;23.35;;;10.10;;
34278;SDS011;20538;51.528;9.942;2022-09-29T00:36:57;19.75;;;10.85;;
34278;SDS011;20538;51.528;9.942;2022-09-29T00:39:23;18.70;;;10.07;;
34278;SDS011;20538;51.528;9.942;2022-09-29T00:41:49;19.83;;;10.27;;
34278;SDS011;20538;51.528;9.942;2022-09-29T00:49:39;21.88;;;9.82;;
34278;SDS011;20538;51.528;9.942;2022-09-29T00:52:18;17.48;;;9.80;;
34278;SDS011;20538;51.528;9.942;2022-09-29T00:54:51;18.92;;;10.48;;
34278;SDS011;20538;51.528;9.942;2022-09-29T00:57:22;22.77;;;10.93;;
34278;SDS011;20538;51.528;9.942;2022-09-29T01:02:21;24.00;;;11.25;;
34278;SDS011;20538;51.528;9.942;2022-09-29T01:04:48;22.85;;;11.10;;
34278;SDS011;20538;51.528;9.942;2022-09-29T01:07:16;25.88;;;11.38;;
34278;SDS011;20538;51.528;9.942;2022-09-29T01:09:43;26.38;;;12.50;;
34278;SDS011;20538;51.528;9.942;2022-09-29T01:12:09;22.45;;;11.82;;
34278;SDS011;20538;51.528;9.942;2022-09-29T01:14:35;22.40;;;11.27;;
34278;SDS011;20538;51.528;9.942;2022-09-29T01:17:02;22.83;;;11.30;;
34278;SDS011;20538;51.528;9.942;2022-09-29T01:34:38;23.55;;;10.85;;
34278;SDS011;20538;51.528;9.942;2022-09-29T01:42:57;22.75;;;10.63;;
34278;SDS011;20538;51.528;9.942;2022-09-29T01:45:32;24.20;;;11.95;;
34278;SDS011;20538;51.528;9.942;2022-09-29T01:48:08;21.15;;;11.30;;
34278;SDS011;20538;51.528;9.942;2022-09-29T01:50:47;22.45;;;11.32;;
34278;SDS011;20538;51.528;9.942;2022-09-29T01:53:18;23.98;;;12.15;;
34278;SDS011;20538;51.528;9.942;2022-09-29T01:56:08;21.25;;;11.32;;
34278;SDS011;20538;51.528;9.942;2022-09-29T01:58:46;25.00;;;12.25;;
34278;SDS011;20538;51.528;9.942;2022-09-29T02:01:27;19.33;;;10.85;;
34278;SDS011;20538;51.528;9.942;2022-09-29T02:04:02;22.33;;;11.05;;
34278;SDS011;20538;51.528;9.942;2022-09-29T02:06:33;23.67;;;10.35;;
34278;SDS011;20538;51.528;9.942;2022-09-29T02:09:07;20.20;;;10.52;;
34278;SDS011;20538;51.528;9.942;2022-09-29T02:11:37;19.23;;;10.25;;
34278;SDS011;20538;51.528;9.942;2022-09-29T02:14:06;19.95;;;10.80;;
34278;SDS011;20538;51.528;9.942;2022-09-29T02:16:41;21.00;;;10.32;;
34278;SDS011;20538;51.528;9.942;2022-09-29T02:21:43;21.08;;;10.35;;
34278;SDS011;20538;51.528;9.942;2022-09-29T02:24:12;22.88;;;10.35;;
34278;SDS011;20538;51.528;9.942;2022-09-29T02:26:38;19.08;;;10.77;;
34278;SDS011;20538;51.528;9.942;2022-09-29T02:29:05;19.80;;;10.93;;
34278;SDS011;20538;51.528;9.942;2022-09-29T02:31:32;24.10;;;11.38;;
34278;SDS011;20538;51.528;9.942;2022-09-29T02:33:59;22.20;;;11.40;;
34278;SDS011;20538;51.528;9.942;2022-09-29T02:47:29;18.80;;;10.02;;
34278;SDS011;20538;51.528;9.942;2022-09-29T02:50:07;20.75;;;10.15;;
34278;SDS011;20538;51.528;9.942;2022-09-29T02:55:11;20.67;;;10.90;;
34278;SDS011;20538;51.528;9.942;2022-09-29T02:57:56;20.35;;;10.15;;
34278;SDS011;20538;51.528;9.942;2022-09-29T03:00:27;19.65;;;10.38;;
34278;SDS011;20538;51.528;9.942;2022-09-29T03:02:54;20.17;;;9.57;;
34278;SDS011;20538;51.528;9.942;2022-09-29T03:05:20;17.58;;;9.77;;
34278;SDS011;20538;51.528;9.942;2022-09-29T03:07:47;17.55;;;9.85;;
34278;SDS011;20538;51.528;9.942;2022-09-29T03:10:13;18.55;;;9.80;;
34278;SDS011;20538;51.528;9.942;2022-09-29T03:12:40;20.05;;;10.38;;
34278;SDS011;20538;51.528;9.942;2022-09-29T03:15:06;20.10;;;9.88;;
34278;SDS011;20538;51.528;9.942;2022-09-29T03:17:33;16.70;;;9.75;;
34278;SDS011;20538;51.528;9.942;2022-09-29T03:19:59;20.40;;;9.82;;
34278;SDS011;20538;51.528;9.942;2022-09-29T03:22:25;19.30;;;9.88;;
34278;SDS011;20538;51.528;9.942;2022-09-29T03:24:51;17.98;;;9.75;;
34278;SDS011;20538;51.528;9.942;2022-09-29T03:27:17;18.30;;;11.00;;
34278;SDS011;20538;51.528;9.942;2022-09-29T03:29:42;18.85;;;10.25;;
34278;SDS011;20538;51.528;9.942;2022-09-29T03:32:08;19.20;;;10.13;;
34278;SDS011;20538;51.528;9.942;2022-09-29T03:34:34;18.58;;;9.65;;
34278;SDS011;20538;51.528;9.942;2022-09-29T03:37:00;23.52;;;10.43;;
34278;SDS011;20538;51.528;9.942;2022-09-29T03:39:26;24.17;;;11.18;;
34278;SDS011;20538;51.528;9.942;2022-09-29T03:41:52;20.63;;;10.05;;
34278;SDS011;20538;51.528;9.942;2022-09-29T03:44:18;20.98;;;10.82;;
34278;SDS011;20538;51.528;9.942;2022-09-29T03:46:44;19.52;;;10.85;;
34278;SDS011;20538;51.528;9.942;2022-09-29T03:49:11;18.05;;;9.57;;
34278;SDS011;20538;51.528;9.942;2022-09-29T03:51:38;17.38;;;10.07;;
34278;SDS011;20538;51.528;9.942;2022-09-29T03:54:03;14.50;;;8.88;;
34278;SDS011;20538;51.528;9.942;2022-09-29T03:56:30;16.67;;;9.35;;
34278;SDS011;20538;51.528;9.942;2022-09-29T03:58:56;16.85;;;8.80;;
34278;SDS011;20538;51.528;9.942;2022-09-29T04:01:21;17.95;;;9.55;;
34278;SDS011;20538;51.528;9.942;2022-09-29T04:03:47;18.10;;;9.50;;
34278;SDS011;20538;51.528;9.942;2022-09-29T04:06:12;19.08;;;10.13;;
34278;SDS011;20538;51.528;9.942;2022-09-29T04:08:38;18.30;;;9.98;;
34278;SDS011;20538;51.528;9.942;2022-09-29T04:11:04;19.70;;;10.07;;
34278;SDS011;20538;51.528;9.942;2022-09-29T04:13:30;18.88;;;9.70;;
34278;SDS011;20538;51.528;9.942;2022-09-29T04:15:57;22.20;;;10.85;;
34278;SDS011;20538;51.528;9.942;2022-09-29T04:18:24;21.73;;;10.63;;
34278;SDS011;20538;51.528;9.942;2022-09-29T04:20:50;18.98;;;10.68;;
34278;SDS011;20538;51.528;9.942;2022-09-29T04:23:16;21.38;;;11.60;;
34278;SDS011;20538;51.528;9.942;2022-09-29T04:25:43;22.23;;;11.35;;
34278;SDS011;20538;51.528;9.942;2022-09-29T04:28:09;23.10;;;11.20;;
34278;SDS011;20538;51.528;9.942;2022-09-29T04:30:35;23.13;;;12.60;;
34278;SDS011;20538;51.528;9.942;2022-09-29T04:33:01;24.52;;;11.30;;
34278;SDS011;20538;51.528;9.942;2022-09-29T04:35:27;23.02;;;11.10;;
34278;SDS011;20538;51.528;9.942;2022-09-29T04:37:55;25.20;;;12.15;;
34278;SDS011;20538;51.528;9.942;2022-09-29T04:40:21;24.10;;;11.10;;
34278;SDS011;20538;51.528;9.942;2022-09-29T04:42:48;23.58;;;11.95;;
34278;SDS011;20538;51.528;9.942;2022-09-29T04:45:13;24.92;;;12.00;;
34278;SDS011;20538;51.528;9.942;2022-09-29T04:47:39;23.63;;;10.30;;
34278;SDS011;20538;51.528;9.942;2022-09-29T04:50:05;23.98;;;11.70;;
34278;SDS011;20538;51.528;9.942;2022-09-29T04:52:31;23.58;;;10.93;;
34278;SDS011;20538;51.528;9.942;2022-09-29T04:54:57;20.85;;;10.73;;
34278;SDS011;20538;51.528;9.942;2022-09-29T04:57:23;24.52;;;12.60;;
34278;SDS011;20538;51.528;9.942;2022-09-29T04:59:48;28.80;;;13.40;;
34278;SDS011;20538;51.528;9.942;2022-09-29T05:02:16;28.52;;;12.98;;
34278;SDS011;20538;51.528;9.942;2022-09-29T05:04:44;22.88;;;13.20;;
34278;SDS011;20538;51.528;9.942;2022-09-29T05:07:11;27.55;;;13.13;;
34278;SDS011;20538;51.528;9.942;2022-09-29T05:09:38;28.58;;;12.88;;
34278;SDS011;20538;51.528;9.942;2022-09-29T05:12:03;27.90;;;13.93;;
34278;SDS011;20538;51.528;9.942;2022-09-29T05:14:29;31.95;;;13.93;;
34278;SDS011;20538;51.528;9.942;2022-09-29T05:16:55;26.67;;;13.52;;
34278;SDS011;20538;51.528;9.942;2022-09-29T05:19:21;34.03;;;17.85;;
34278;SDS011;20538;51.528;9.942;2022-09-29T05:21:47;44.75;;;19.60;;
34278;SDS011;20538;51.528;9.942;2022-09-29T05:24:12;46.50;;;14.88;;
34278;SDS011;20538;51.528;9.942;2022-09-29T05:26:38;28.60;;;13.23;;
34278;SDS011;20538;51.528;9.942;2022-09-29T05:29:04;39.70;;;13.95;;
34278;SDS011;20538;51.528;9.942;2022-09-29T05:31:29;44.45;;;13.60;;
34278;SDS011;20538;51.528;9.942;2022-09-29T05:33:55;36.42;;;15.15;;
34278;SDS011;20538;51.528;9.942;2022-09-29T05:36:21;32.05;;;14.82;;
34278;SDS011;20538;51.528;9.942;2022-09-29T05:38:47;33.78;;;13.25;;
34278;SDS011;20538;51.528;9.942;2022-09-29T05:41:12;32.30;;;13.90;;
34278;SDS011;20538;51.528;9.942;2022-09-29T05:43:46;26.58;;;14.02;;
34278;SDS011;20538;51.528;9.942;2022-09-29T05:46:12;33.92;;;14.88;;
34278;SDS011;20538;51.528;9.942;2022-09-29T05:48:39;30.48;;;15.00;;
34278;SDS011;20538;51.528;9.942;2022-09-29T05:51:08;31.63;;;14.52;;
34278;SDS011;20538;51.528;9.942;2022-09-29T05:53:35;25.65;;;13.50;;
34278;SDS011;20538;51.528;9.942;2022-09-29T05:56:08;26.23;;;13.60;;
34278;SDS011;20538;51.528;9.942;2022-09-29T05:58:36;28.48;;;13.50;;
34278;SDS011;20538;51.528;9.942;2022-09-29T06:01:09;33.15;;;14.48;;
34278;SDS011;20538;51.528;9.942;2022-09-29T06:03:37;37.28;;;13.25;;
34278;SDS011;20538;51.528;9.942;2022-09-29T06:08:38;30.67;;;12.40;;
34278;SDS011;20538;51.528;9.942;2022-09-29T06:11:13;39.55;;;13.55;;
34278;SDS011;20538;51.528;9.942;2022-09-29T06:13:48;29.67;;;13.55;;
34278;SDS011;20538;51.528;9.942;2022-09-29T06:16:16;29.65;;;13.07;;
34278;SDS011;20538;51.528;9.942;2022-09-29T06:18:43;22.23;;;12.18;;
34278;SDS011;20538;51.528;9.942;2022-09-29T06:21:11;25.45;;;11.88;;
34278;SDS011;20538;51.528;9.942;2022-09-29T06:23:38;25.17;;;12.80;;
34278;SDS011;20538;51.528;9.942;2022-09-29T06:26:05;26.27;;;11.85;;
34278;SDS011;20538;51.528;9.942;2022-09-29T06:28:33;29.85;;;12.85;;
34278;SDS011;20538;51.528;9.942;2022-09-29T06:30:59;25.63;;;12.50;;
34278;SDS011;20538;51.528;9.942;2022-09-29T06:33:27;25.58;;;12.23;;
34278;SDS011;20538;51.528;9.942;2022-09-29T06:35:54;25.63;;;11.30;;
34278;SDS011;20538;51.528;9.942;2022-09-29T06:38:39;39.50;;;12.10;;
34278;SDS011;20538;51.528;9.942;2022-09-29T06:41:06;25.45;;;11.73;;
34278;SDS011;20538;51.528;9.942;2022-09-29T06:43:32;39.40;;;15.35;;
34278;SDS011;20538;51.528;9.942;2022-09-29T06:45:59;36.53;;;12.10;;
34278;SDS011;20538;51.528;9.942;2022-09-29T06:48:24;30.67;;;10.98;;
34278;SDS011;20538;51.528;9.942;2022-09-29T06:50:50;32.55;;;10.45;;
34278;SDS011;20538;51.528;9.942;2022-09-29T06:53:16;26.10;;;10.48;;
34278;SDS011;20538;51.528;9.942;2022-09-29T06:55:42;20.55;;;9.77;;
34278;SDS011;20538;51.528;9.942;2022-09-29T06:58:08;23.63;;;10.07;;
34278;SDS011;20538;51.528;9.942;2022-09-29T07:00:33;44.22;;;10.45;;
34278;SDS011;20538;51.528;9.942;2022-09-29T07:03:00;24.83;;;8.60;;
34278;SDS011;20538;51.528;9.942;2022-09-29T07:05:25;32.25;;;8.68;;
34278;SDS011;20538;51.528;9.942;2022-09-29T07:07:51;31.83;;;9.13;;
34278;SDS011;20538;51.528;9.942;2022-09-29T07:10:17;20.10;;;8.02;;
34278;SDS011;20538;51.528;9.942;2022-09-29T07:12:43;19.70;;;7.40;;
34278;SDS011;20538;51.528;9.942;2022-09-29T07:15:11;27.92;;;8.32;;
34278;SDS011;20538;51.528;9.942;2022-09-29T07:17:38;21.52;;;7.82;;
34278;SDS011;20538;51.528;9.942;2022-09-29T07:20:04;16.75;;;7.35;;
34278;SDS011;20538;51.528;9.942;2022-09-29T07:22:31;27.58;;;8.30;;
34278;SDS011;20538;51.528;9.942;2022-09-29T07:24:56;23.25;;;9.27;;
34278;SDS011;20538;51.528;9.942;2022-09-29T07:27:22;15.27;;;7.28;;
34278;SDS011;20538;51.528;9.942;2022-09-29T07:29:49;18.83;;;6.85;;
34278;SDS011;20538;51.528;9.942;2022-09-29T07:32:15;26.70;;;7.97;;
34278;SDS011;20538;51.528;9.942;2022-09-29T07:34:42;13.70;;;7.28;;
34278;SDS011;20538;51.528;9.942;2022-09-29T07:37:07;13.55;;;7.60;;
34278;SDS011;20538;51.528;9.942;2022-09-29T07:39:33;22.88;;;7.60;;
34278;SDS011;20538;51.528;9.942;2022-09-29T07:41:59;30.63;;;8.35;;
34278;SDS011;20538;51.528;9.942;2022-09-29T07:44:24;22.08;;;8.02;;
34278;SDS011;20538;51.528;9.942;2022-09-29T07:46:50;14.30;;;8.32;;
34278;SDS011;20538;51.528;9.942;2022-09-29T07:49:16;13.32;;;8.13;;
34278;SDS011;20538;51.528;9.942;2022-09-29T07:51:42;12.00;;;7.43;;
34278;SDS011;20538;51.528;9.942;2022-09-29T07:54:07;16.77;;;7.60;;
34278;SDS011;20538;51.528;9.942;2022-09-29T07:56:33;12.38;;;7.63;;
34278;SDS011;20538;51.528;9.942;2022-09-29T07:58:59;12.05;;;7.35;;
34278;SDS011;20538;51.528;9.942;2022-09-29T08:01:26;12.20;;;7.93;;
34278;SDS011;20538;51.528;9.942;2022-09-29T08:03:53;12.82;;;7.90;;
34278;SDS011;20538;51.528;9.942;2022-09-29T08:06:20;13.13;;;7.88;;
34278;SDS011;20538;51.528;9.942;2022-09-29T08:08:47;13.20;;;8.45;;
34278;SDS011;20538;51.528;9.942;2022-09-29T08:11:14;12.93;;;7.95;;
34278;SDS011;20538;51.528;9.942;2022-09-29T08:13:44;14.30;;;8.18;;
34278;SDS011;20538;51.528;9.942;2022-09-29T08:16:11;12.50;;;8.30;;
34278;SDS011;20538;51.528;9.942;2022-09-29T08:18:38;13.63;;;8.50;;
34278;SDS011;20538;51.528;9.942;2022-09-29T08:21:04;12.18;;;8.00;;
34278;SDS011;20538;51.528;9.942;2022-09-29T08:23:34;11.93;;;8.02;;
34278;SDS011;20538;51.528;9.942;2022-09-29T08:26:08;11.73;;;8.02;;
34278;SDS011;20538;51.528;9.942;2022-09-29T08:28:36;12.45;;;8.20;;
34278;SDS011;20538;51.528;9.942;2022-09-29T08:31:03;13.20;;;8.38;;
34278;SDS011;20538;51.528;9.942;2022-09-29T08:33:30;18.35;;;8.57;;
34278;SDS011;20538;51.528;9.942;2022-09-29T08:35:57;14.50;;;8.85;;
34278;SDS011;20538;51.528;9.942;2022-09-29T08:38:24;16.13;;;8.63;;
34278;SDS011;20538;51.528;9.942;2022-09-29T08:40:50;13.95;;;8.95;;
34278;SDS011;20538;51.528;9.942;2022-09-29T08:43:28;19.27;;;8.30;;
34278;SDS011;20538;51.528;9.942;2022-09-29T08:45:59;15.02;;;8.57;;
34278;SDS011;20538;51.528;9.942;2022-09-29T08:48:31;17.17;;;9.07;;
34278;SDS011;20538;51.528;9.942;2022-09-29T08:51:03;21.35;;;8.65;;
34278;SDS011;20538;51.528;9.942;2022-09-29T08:53:33;13.70;;;8.27;;
34278;SDS011;20538;51.528;9.942;2022-09-29T08:56:04;12.43;;;8.55;;
34278;SDS011;20538;51.528;9.942;2022-09-29T08:58:31;13.38;;;8.80;;
34278;SDS011;20538;51.528;9.942;2022-09-29T09:01:01;15.65;;;9.00;;
34278;SDS011;20538;51.528;9.942;2022-09-29T09:06:35;13.65;;;8.98;;
34278;SDS011;20538;51.528;9.942;2022-09-29T09:22:55;14.30;;;9.07;;
34278;SDS011;20538;51.528;9.942;2022-09-29T09:25:33;19.20;;;10.35;;
34278;SDS011;20538;51.528;9.942;2022-09-29T09:30:44;16.55;;;10.23;;
34278;SDS011;20538;51.528;9.942;2022-09-29T09:33:21;15.95;;;11.00;;
34278;SDS011;20538;51.528;9.942;2022-09-29T09:35:54;19.20;;;11.43;;
34278;SDS011;20538;51.528;9.942;2022-09-29T09:38:27;17.27;;;10.57;;
34278;SDS011;20538;51.528;9.942;2022-09-29T09:41:07;15.52;;;10.35;;
34278;SDS011;20538;51.528;9.942;2022-09-29T09:43:36;16.75;;;10.48;;
34278;SDS011;20538;51.528;9.942;2022-09-29T09:46:19;18.33;;;10.85;;
34278;SDS011;20538;51.528;9.942;2022-09-29T09:54:39;19.27;;;11.63;;
34278;SDS011;20538;51.528;9.942;2022-09-29T09:57:23;19.88;;;11.25;;
34278;SDS011;20538;51.528;9.942;2022-09-29T10:02:33;19.33;;;11.60;;
34278;SDS011;20538;51.528;9.942;2022-09-29T10:04:59;21.60;;;11.30;;
34278;SDS011;20538;51.528;9.942;2022-09-29T10:07:26;21.55;;;12.25;;
34278;SDS011;20538;51.528;9.942;2022-09-29T10:09:55;19.58;;;11.75;;
34278;SDS011;20538;51.528;9.942;2022-09-29T10:12:22;17.92;;;11.90;;
34278;SDS011;20538;51.528;9.942;2022-09-29T10:15:03;18.58;;;11.63;;
34278;SDS011;20538;51.528;9.942;2022-09-29T10:17:38;17.20;;;10.80;;
34278;SDS011;20538;51.528;9.942;2022-09-29T10:20:07;17.58;;;10.93;;
34278;SDS011;20538;51.528;9.942;2022-09-29T10:22:33;19.95;;;12.32;;
34278;SDS011;20538;51.528;9.942;2022-09-29T10:27:55;17.58;;;11.73;;
34278;SDS011;20538;51.528;9.942;2022-09-29T10:30:30;16.75;;;11.80;;
34278;SDS011;20538;51.528;9.942;2022-09-29T10:33:00;19.00;;;11.32;;
34278;SDS011;20538;51.528;9.942;2022-09-29T10:35:31;16.55;;;10.57;;
34278;SDS011;20538;51.528;9.942;2022-09-29T10:38:01;16.75;;;10.88;;
34278;SDS011;20538;51.528;9.942;2022-09-29T10:40:30;13.48;;;9.63;;
34278;SDS011;20538;51.528;9.942;2022-09-29T10:42:55;15.55;;;10.05;;
34278;SDS011;20538;51.528;9.942;2022-09-29T10:45:25;15.48;;;10.10;;
34278;SDS011;20538;51.528;9.942;2022-09-29T10:50:24;13.38;;;8.35;;
34278;SDS011;20538;51.528;9.942;2022-09-29T10:52:54;10.07;;;6.32;;
34278;SDS011;20538;51.528;9.942;2022-09-29T10:55:46;8.52;;;6.28;;
34278;SDS011;20538;51.528;9.942;2022-09-29T10:58:39;7.65;;;5.80;;
34278;SDS011;20538;51.528;9.942;2022-09-29T11:01:15;8.75;;;6.90;;
34278;SDS011;20538;51.528;9.942;2022-09-29T11:03:53;10.02;;;7.25;;
34278;SDS011;20538;51.528;9.942;2022-09-29T11:06:28;10.75;;;6.97;;
34278;SDS011;20538;51.528;9.942;2022-09-29T11:08:59;9.57;;;6.72;;
34278;SDS011;20538;51.528;9.942;2022-09-29T11:11:36;7.43;;;5.93;;
34278;SDS011;20538;51.528;9.942;2022-09-29T11:14:03;9.65;;;6.20;;
34278;SDS011;20538;51.528;9.942;2022-09-29T11:18:58;6.93;;;5.28;;
34278;SDS011;20538;51.528;9.942;2022-09-29T11:32:21;5.75;;;2.92;;
34278;SDS011;20538;51.528;9.942;2022-09-29T11:40:43;3.90;;;3.15;;
34278;SDS011;20538;51.528;9.942;2022-09-29T11:43:33;3.38;;;2.65;;
34278;SDS011;20538;51.528;9.942;2022-09-29T12:02:32;4.15;;;3.00;;
34278;SDS011;20538;51.528;9.942;2022-09-29T12:07:57;5.55;;;2.72;;
34278;SDS011;20538;51.528;9.942;2022-09-29T12:13:44;4.13;;;2.63;;
34278;SDS011;20538;51.528;9.942;2022-09-29T12:16:35;3.13;;;2.45;;
34278;SDS011;20538;51.528;9.942;2022-09-29T12:19:13;3.88;;;2.65;;
34278;SDS011;20538;51.528;9.942;2022-09-29T12:24:58;4.80;;;2.70;;
34278;SDS011;20538;51.528;9.942;2022-09-29T12:27:10;2.75;;;2.55;;
34278;SDS011;20538;51.528;9.942;2022-09-29T12:29:57;3.60;;;2.90;;
34278;SDS011;20538;51.528;9.942;2022-09-29T12:32:32;4.63;;;3.17;;
34278;SDS011;20538;51.528;9.942;2022-09-29T12:35:14;7.82;;;4.70;;
34278;SDS011;20538;51.528;9.942;2022-09-29T12:38:07;4.05;;;3.58;;
34278;SDS011;20538;51.528;9.942;2022-09-29T12:46:45;4.40;;;2.72;;
34278;SDS011;20538;51.528;9.942;2022-09-29T12:51:47;4.03;;;3.30;;
34278;SDS011;20538;51.528;9.942;2022-09-29T12:57:08;2.88;;;2.40;;
34278;SDS011;20538;51.528;9.942;2022-09-29T12:59:41;4.13;;;2.92;;
34278;SDS011;20538;51.528;9.942;2022-09-29T13:13:38;2.47;;;2.05;;
34278;SDS011;20538;51.528;9.942;2022-09-29T13:24:46;3.92;;;2.38;;
34278;SDS011;20538;51.528;9.942;2022-09-29T13:27:31;4.15;;;2.10;;
34278;SDS011;20538;51.528;9.942;2022-09-29T13:32:54;3.55;;;2.05;;
34278;SDS011;20538;51.528;9.942;2022-09-29T13:35:26;3.03;;;1.80;;
34278;SDS011;20538;51.528;9.942;2022-09-29T13:37:56;2.60;;;2.00;;
34278;SDS011;20538;51.528;9.942;2022-09-29T13:40:28;2.07;;;1.87;;
34278;SDS011;20538;51.528;9.942;2022-09-29T13:42:58;2.60;;;1.80;;
34278;SDS011;20538;51.528;9.942;2022-09-29T13:47:53;4.57;;;2.38;;
34278;SDS011;20538;51.528;9.942;2022-09-29T13:58:31;2.45;;;1.83;;
34278;SDS011;20538;51.528;9.942;2022-09-29T14:00:59;2.70;;;2.00;;
34278;SDS011;20538;51.528;9.942;2022-09-29T14:03:32;2.47;;;2.08;;
34278;SDS011;20538;51.528;9.942;2022-09-29T14:11:29;2.60;;;1.85;;
34278;SDS011;20538;51.528;9.942;2022-09-29T14:14:13;5.18;;;1.77;;
34278;SDS011;20538;51.528;9.942;2022-09-29T14:21:57;2.05;;;1.80;;
34278;SDS011;20538;51.528;9.942;2022-09-29T14:24:41;5.18;;;2.20;;
34278;SDS011;20538;51.528;9.942;2022-09-29T14:35:37;3.22;;;2.08;;
34278;SDS011;20538;51.528;9.942;2022-09-29T14:38:38;3.42;;;1.80;;
34278;SDS011;20538;51.528;9.942;2022-09-29T14:41:14;2.58;;;2.00;;
34278;SDS011;20538;51.528;9.942;2022-09-29T14:43:58;2.10;;;1.90;;
34278;SDS011;20538;51.528;9.942;2022-09-29T14:49:26;5.22;;;2.42;;
34278;SDS011;20538;51.528;9.942;2022-09-29T14:52:38;3.38;;;2.17;;
34278;SDS011;20538;51.528;9.942;2022-09-29T15:06:14;2.85;;;2.38;;
34278;SDS011;20538;51.528;9.942;2022-09-29T15:08:51;3.00;;;1.80;;
34278;SDS011;20538;51.528;9.942;2022-09-29T15:11:24;2.90;;;1.80;;
34278;SDS011;20538;51.528;9.942;2022-09-29T15:13:56;3.17;;;1.90;;
34278;SDS011;20538;51.528;9.942;2022-09-29T15:16:39;4.82;;;1.92;;
34278;SDS011;20538;51.528;9.942;2022-09-29T15:22:13;4.28;;;2.20;;
34278;SDS011;20538;51.528;9.942;2022-09-29T15:27:53;2.83;;;1.75;;
34278;SDS011;20538;51.528;9.942;2022-09-29T15:30:24;4.53;;;2.60;;
34278;SDS011;20538;51.528;9.942;2022-09-29T15:32:51;6.38;;;2.20;;
34278;SDS011;20538;51.528;9.942;2022-09-29T15:35:21;2.97;;;1.77;;
34278;SDS011;20538;51.528;9.942;2022-09-29T15:40:21;6.80;;;3.55;;
34278;SDS011;20538;51.528;9.942;2022-09-29T15:42:49;4.90;;;2.63;;
34278;SDS011;20538;51.528;9.942;2022-09-29T15:45:18;5.28;;;2.13;;
34278;SDS011;20538;51.528;9.942;2022-09-29T15:50:31;4.93;;;2.60;;
34278;SDS011;20538;51.528;9.942;2022-09-29T15:53:00;6.43;;;2.30;;
34278;SDS011;20538;51.528;9.942;2022-09-29T15:55:28;3.35;;;2.33;;
34278;SDS011;20538;51.528;9.942;2022-09-29T15:57:55;6.15;;;1.92;;
34278;SDS011;20538;51.528;9.942;2022-09-29T16:05:14;3.45;;;2.25;;
34278;SDS011;20538;51.528;9.942;2022-09-29T16:08:04;3.40;;;2.20;;
34278;SDS011;20538;51.528;9.942;2022-09-29T16:10:33;7.90;;;2.70;;
34278;SDS011;20538;51.528;9.942;2022-09-29T16:13:07;4.10;;;2.40;;
34278;SDS011;20538;51.528;9.942;2022-09-29T16:15:44;3.30;;;2.47;;
34278;SDS011;20538;51.528;9.942;2022-09-29T16:18:18;4.15;;;2.63;;
34278;SDS011;20538;51.528;9.942;2022-09-29T16:20:47;3.08;;;2.13;;
34278;SDS011;20538;51.528;9.942;2022-09-29T16:28:33;2.33;;;2.00;;
34278;SDS011;20538;51.528;9.942;2022-09-29T16:31:03;280.52;;;25.15;;
34278;SDS011;20538;51.528;9.942;2022-09-29T16:33:30;4.03;;;2.30;;
34278;SDS011;20538;51.528;9.942;2022-09-29T16:38:36;5.47;;;2.53;;
34278;SDS011;20538;51.528;9.942;2022-09-29T16:43:44;6.85;;;2.20;;
34278;SDS011;20538;51.528;9.942;2022-09-29T16:46:13;3.83;;;2.25;;
34278;SDS011;20538;51.528;9.942;2022-09-29T16:48:43;2.58;;;2.00;;
34278;SDS011;20538;51.528;9.942;2022-09-29T16:51:17;5.03;;;2.08;;
34278;SDS011;20538;51.528;9.942;2022-09-29T16:53:44;4.03;;;2.38;;
34278;SDS011;20538;51.528;9.942;2022-09-29T16:56:16;4.78;;;2.85;;
34278;SDS011;20538;51.528;9.942;2022-09-29T16:59:00;3.53;;;2.88;;
34278;SDS011;20538;51.528;9.942;2022-09-29T17:01:35;4.78;;;2.28;;
34278;SDS011;20538;51.528;9.942;2022-09-29T17:04:01;5.00;;;2.78;;
34278;SDS011;20538;51.528;9.942;2022-09-29T17:06:27;6.10;;;2.85;;
34278;SDS011;20538;51.528;9.942;2022-09-29T17:08:55;3.72;;;2.53;;
34278;SDS011;20538;51.528;9.942;2022-09-29T17:11:21;7.60;;;3.40;;
34278;SDS011;20538;51.528;9.942;2022-09-29T17:13:47;6.68;;;3.25;;
34278;SDS011;20538;51.528;9.942;2022-09-29T17:16:13;6.28;;;3.30;;
34278;SDS011;20538;51.528;9.942;2022-09-29T17:18:45;9.23;;;3.70;;
34278;SDS011;20538;51.528;9.942;2022-09-29T17:21:13;6.07;;;3.60;;
34278;SDS011;20538;51.528;9.942;2022-09-29T17:23:38;6.55;;;3.38;;
34278;SDS011;20538;51.528;9.942;2022-09-29T17:26:04;13.85;;;6.97;;
34278;SDS011;20538;51.528;9.942;2022-09-29T17:28:59;10.20;;;5.68;;
34278;SDS011;20538;51.528;9.942;2022-09-29T17:31:25;9.90;;;5.05;;
34278;SDS011;20538;51.528;9.942;2022-09-29T17:33:50;9.18;;;4.40;;
34278;SDS011;20538;51.528;9.942;2022-09-29T17:36:16;7.03;;;4.72;;
34278;SDS011;20538;51.528;9.942;2022-09-29T17:38:42;5.43;;;3.72;;
34278;SDS011;20538;51.528;9.942;2022-09-29T17:41:10;9.20;;;4.20;;
34278;SDS011;20538;51.528;9.942;2022-09-29T17:43:40;4.50;;;3.38;;
34278;SDS011;20538;51.528;9.942;2022-09-29T17:46:10;5.20;;;3.33;;
34278;SDS011;20538;51.528;9.942;2022-09-29T17:48:38;7.00;;;3.88;;
34278;SDS011;20538;51.528;9.942;2022-09-29T17:51:03;6.45;;;4.18;;
34278;SDS011;20538;51.528;9.942;2022-09-29T17:53:34;5.03;;;3.33;;
34278;SDS011;20538;51.528;9.942;2022-09-29T17:56:00;3.90;;;2.83;;
34278;SDS011;20538;51.528;9.942;2022-09-29T17:58:27;4.72;;;2.88;;
34278;SDS011;20538;51.528;9.942;2022-09-29T18:00:53;3.05;;;2.70;;
34278;SDS011;20538;51.528;9.942;2022-09-29T18:03:21;3.90;;;2.85;;
34278;SDS011;20538;51.528;9.942;2022-09-29T18:05:48;5.53;;;3.10;;
34278;SDS011;20538;51.528;9.942;2022-09-29T18:08:20;3.00;;;2.75;;
34278;SDS011;20538;51.528;9.942;2022-09-29T18:10:49;5.75;;;3.00;;
34278;SDS011;20538;51.528;9.942;2022-09-29T18:13:19;3.10;;;2.67;;
34278;SDS011;20538;51.528;9.942;2022-09-29T18:15:46;5.93;;;3.08;;
34278;SDS011;20538;51.528;9.942;2022-09-29T18:18:13;5.30;;;3.03;;
34278;SDS011;20538;51.528;9.942;2022-09-29T18:20:41;5.55;;;3.03;;
34278;SDS011;20538;51.528;9.942;2022-09-29T18:23:10;4.53;;;2.58;;
34278;SDS011;20538;51.528;9.942;2022-09-29T18:25:37;8.73;;;3.00;;
34278;SDS011;20538;51.528;9.942;2022-09-29T18:28:03;3.08;;;2.70;;
34278;SDS011;20538;51.528;9.942;2022-09-29T18:30:29;4.47;;;2.58;;
34278;SDS011;20538;51.528;9.942;2022-09-29T18:32:59;5.30;;;3.03;;
34278;SDS011;20538;51.528;9.942;2022-09-29T18:35:29;7.43;;;4.60;;
34278;SDS011;20538;51.528;9.942;2022-09-29T18:37:58;6.40;;;4.72;;